Forside
METAR-TAF:

METAR-TAF

Lufthavne :

Skövde, Sverige

Breddekreds: 58-27N, længdekreds: 013-58E, højde: 98 m

Aktuelle vejr

Denne rapport blev lavet for 26 minutter siden, kl. 19:50 UTC
Vind 18 kt fra vestsydvest
Temperatur 4°C
Fugtighed 70%
Tryk 988 hPa
Sigt 10 km eller mere

METAR: ESGR 221950Z AUTO 24018KT 9999 NCD 04/M01 Q0988

Tid: 21:16 (20:16 UTC)


TAF: fraværende

Vejrobservationer og prognoser fra mere end 4000 lufthavne (METAR og TAF).

De gule og røde prikker repræsenterer de meteorologiske stationer.

Flyt musen over at se navnet på stationen.

Så klik over at se vejr observationer og prognoser.

At skifte det kort: Klik på de grønne knapper med et sort kors for at zoome ind; på den grønne knap med en bindestreg for at zoome ud; eller på de grønne pile for tilstødende kort.


METAR-TAF: